Airfield :
LOGIN :

Register | Disclaimer

   EN    FR    IT 

 










Legend :    VFR   Marginal VFR   IFR   Intensive IFR   Very Intensive IFR
Visi :
Ceiling :
>= 8 km
>= 3000ft
5 to 8 km
1000 to 3000 ft
1500m to 5 km
500 to 1000 ft
800 to 1500m
200 to 500 ft
< 800m
< 200 ft
Symbols :   Thunderstorms  Fog  Heavy snow  Heavy precipitations  Wind > 20 kt
SIGMETs :     Misc.  Thunderstorms  Icing  Turbulence  Mountain Waves  Volcanic Ashes






- Airport Elevation : 1470 ft


LSMD - Dubendorf Military

CURRENT METAR :
  • 091950Z AUTO VRB01KT 4100NDV BR SCT004 BKN008 OVC038 01/00 Q1002 RMK

EXPIRED METARs :
  • 091920Z AUTO 00000KT 4400NDV BR FEW002 BKN004 OVC011 01/00 Q1002 RMK
  • 090450Z AUTO VRB02KT 5000NDV BR SCT004 BKN007 OVC019 M00/M01 Q1002 RMK
  • 091850Z AUTO 00000KT 3500NDV BR FEW003 BKN039 01/M00 Q1002 RMK
  • 091820Z AUTO 28001KT 3300NDV -SHRASN BR SCT011 SCT015 BKN040 01/00 Q1002 RMK
  • 091750Z AUTO 00000KT 2900NDV -RASN BR FEW002 SCT012 BKN039 01/M00 Q1002 RMK
  • 091720Z AUTO VRB01KT 2400NDV -RASN BR FEW002 SCT013 BKN018 01/00 Q1002 RMK

Expired Forecast.



MET'MAP, your aeronautical weather chart ! - Copyright ORBIFLY December 2007 - Disclaimer

ORBIFLY MET'MAP TEAM :

Programming & Development : Alexandra Zaïnal
Original concept : Baudouin d'Aumeries
Technical & hardware support : Manuel Goepfert
Assistance : Marc-Olivier Méhu




SOURCES & CREDITS :

   NOAA